Flag for Spain

Past Weather in 41°20'50.5"N, 2°02'35.1"E, Spain — Yesterday and Last 2 Weeks

Currently: 52 °F. Partly cloudy. (Weather station: Barcelona Airport, Spain). See more current weather

Past Weather in 41°20'50.5"N, 2°02'35.1"E — Graph

°F

41°20'50.5"N, 2°02'35.1"E Temperature Yesterday

Maximum temperature yesterday: 59 °F (at 12:00 pm)
Minimum temperature yesterday: 50 °F (at 1:30 am)
Average temperature yesterday: 55 °F

High & Low Weather Summary for the Past Weeks

 TemperatureHumidityPressure
High70 °F (Apr 3, 1:00 pm)100% (Apr 10, 11:30 pm)30.51 "Hg (Apr 10, 11:30 pm)
Low46 °F (Mar 29, 8:00 am)34% (Mar 29, 4:30 pm)29.80 "Hg (Apr 3, 4:00 pm)
Average56 °F70%30.12 "Hg
* Reported Mar 28 1:00 am — Apr 12 2:30 am, 41°20'50.5"N, 2°02'35.1"E. Weather by CustomWeather, © 2021

Note: Actual official high and low records may vary slightly from our data, if they occured in-between our weather recording intervals... More about our weather records

41°20'50.5"N, 2°02'35.1"E Weather History for the Previous 24 Hours

Scroll right to see more
 ConditionsComfort  
Time TempWeatherWind HumidityBarometerVisibility
2:30 am
Mon, Apr 12
52 °FPartly cloudy.8 mph94%30.12 "Hg4 mi
2:00 am54 °FPartly cloudy.6 mph88%30.12 "HgN/A
1:30 am54 °FLight rain. Partly cloudy.9 mph88%30.09 "HgN/A
1:00 am54 °FPartly cloudy.9 mph88%30.09 "HgN/A
12:30 am54 °FPartly cloudy.12 mph94%30.07 "HgN/A
12:00 am54 °FPartly cloudy.14 mph94%30.07 "HgN/A
11:30 pm
Sun, Apr 11
55 °FPassing clouds.15 mph88%30.07 "HgN/A
11:00 pm55 °FPartly cloudy.15 mph88%30.07 "HgN/A
10:30 pm57 °FPassing clouds.5 mph94%30.04 "HgN/A
10:00 pm57 °FPassing clouds.7 mph94%30.04 "HgN/A
9:30 pm57 °FPassing clouds.8 mph94%30.01 "HgN/A
9:00 pm57 °FPassing clouds.8 mph94%29.98 "HgN/A
8:30 pm57 °FPassing clouds.8 mph94%29.98 "HgN/A
8:00 pm59 °FScattered clouds.8 mph88%29.98 "HgN/A
7:30 pm59 °FScattered clouds.8 mph88%29.95 "HgN/A
7:00 pm59 °FScattered clouds.9 mph82%29.95 "HgN/A
6:30 pm59 °FScattered clouds.10 mph82%29.95 "HgN/A
6:00 pm59 °FScattered clouds.13 mph82%29.95 "HgN/A
5:30 pm59 °FScattered clouds.14 mph88%29.92 "HgN/A
5:00 pm59 °FScattered clouds.14 mph82%29.92 "HgN/A
4:30 pm59 °FPartly sunny.13 mph82%29.92 "HgN/A
4:00 pm59 °FPartly sunny.12 mph88%29.92 "HgN/A
3:30 pm59 °FPartly sunny.12 mph82%29.92 "HgN/A
3:00 pm59 °FPartly sunny.12 mph82%29.92 "HgN/A
2:30 pm59 °FPartly sunny.12 mph82%29.92 "HgN/A
2:00 pm57 °FPartly sunny.13 mph88%29.92 "HgN/A
1:30 pm57 °FPartly sunny.14 mph88%29.92 "HgN/A
1:00 pm57 °FPartly sunny.14 mph88%29.95 "HgN/A
12:30 pm57 °FPartly sunny.13 mph88%29.95 "HgN/A
12:00 pm59 °FScattered clouds.7 mph88%29.92 "HgN/A
11:30 am57 °FPartly sunny.5 mph94%29.95 "HgN/A
11:00 am57 °FBroken clouds.5 mph94%29.92 "HgN/A
10:30 am55 °FDrizzle. Broken clouds.7 mph100%29.92 "Hg4 mi
10:00 am55 °FDrizzle. Partly sunny.1 mph94%29.92 "Hg4 mi
9:43 am55 °FDrizzle. Broken clouds.No wind94%29.92 "Hg4 mi
9:30 am55 °FBroken clouds.No wind94%29.92 "Hg5 mi
9:00 am54 °FBroken clouds.1 mph100%29.92 "Hg5 mi
8:30 am54 °FBroken clouds.No wind100%29.92 "Hg5 mi
8:00 am54 °FPartly sunny.2 mph94%29.92 "Hg4 mi
7:30 am52 °FPartly sunny.2 mph100%29.92 "Hg4 mi
7:00 am52 °FPassing clouds.2 mph100%29.92 "Hg4 mi
6:30 am54 °FPassing clouds.No wind94%29.92 "Hg4 mi
6:00 am54 °FPassing clouds.No wind94%29.92 "Hg4 mi
5:30 am52 °FPassing clouds.2 mph100%29.92 "Hg4 mi
5:00 am52 °FPassing clouds.1 mph94%29.92 "Hg4 mi
4:30 am52 °FPassing clouds.2 mph94%29.92 "Hg4 mi
4:00 am50 °FPassing clouds.1 mph100%29.92 "Hg5 mi
3:30 am50 °FPassing clouds.3 mph94%29.92 "Hg5 mi
3:00 am50 °FPassing clouds.2 mph94%29.92 "Hg5 mi
Weather by CustomWeather, © 2021

See weather overview